Time;durP1;ratioP1;P1;durP2;ratioP2;P2;SDS_P1;SDS_P2;PMS_P1;PMS_P2;Temp;Humidity;BMP_temperature;BMP_pressure;BME280_temperature;BME280_humidity;BME280_pressure;Samples;Min_cycle;Max_cycle;Signal;HPM_P1;HPM_P2
2023/03/17 00:00:38;;;;;;;5.00;4.50;;;;;;;;;;5030679;28;20508;-80
2023/03/17 00:03:05;;;;;;;5.53;4.40;;;;;;;;;;5015452;28;20421;-80
2023/03/17 00:05:32;;;;;;;5.88;4.60;;;;;;;;;;4997749;28;20445;-80
2023/03/17 00:08:10;;;;;;;6.82;4.60;;;;;;;;;;5014420;28;20435;-80
2023/03/17 00:10:36;;;;;;;7.32;4.35;;;;;;;;;;5013683;28;20476;-80
2023/03/17 00:13:02;;;;;;;4.93;4.30;;;;;;;;;;5031822;28;20448;-80
2023/03/17 00:15:29;;;;;;;5.25;4.32;;;;;;;;;;5028229;28;20423;-80
2023/03/17 00:17:56;;;;;;;5.22;4.38;;;;;;;;;;5019920;28;20426;-78
2023/03/17 00:20:22;;;;;;;5.38;4.20;;;;;;;;;;5014911;28;20434;-78
2023/03/17 00:22:48;;;;;;;5.40;4.40;;;;;;;;;;5017467;28;20417;-79
2023/03/17 00:25:21;;;;;;;4.93;4.43;;;;;;;;;;5018208;28;20431;-79
2023/03/17 00:27:48;;;;;;;6.25;4.80;;;;;;;;;;5012846;28;20439;-79
2023/03/17 00:30:14;;;;;;;5.00;4.18;;;;;;;;;;4998390;28;20433;-79
2023/03/17 00:32:41;;;;;;;5.33;4.30;;;;;;;;;;5015897;28;20598;-84
2023/03/17 00:35:18;;;;;;;4.90;4.40;;;;;;;;;;5014564;28;20452;-85
2023/03/17 00:37:45;;;;;;;6.00;4.50;;;;;;;;;;5012082;28;20566;-85
2023/03/17 00:40:22;;;;;;;4.53;4.13;;;;;;;;;;5015062;28;20484;-84
2023/03/17 00:42:48;;;;;;;5.82;4.15;;;;;;;;;;5026479;28;20425;-85
2023/03/17 00:45:15;;;;;;;5.97;4.72;;;;;;;;;;4997278;28;20455;-84
2023/03/17 00:47:41;;;;;;;5.50;4.35;;;;;;;;;;5008096;28;20428;-84
2023/03/17 00:50:20;;;;;;;5.90;4.38;;;;;;;;;;5017356;28;20437;-85
2023/03/17 00:52:47;;;;;;;6.75;4.43;;;;;;;;;;5017266;28;20422;-84
2023/03/17 00:55:14;;;;;;;5.35;4.72;;;;;;;;;;5022094;28;20428;-84
2023/03/17 00:57:40;;;;;;;5.85;4.88;;;;;;;;;;5018490;28;20444;-85
2023/03/17 01:00:07;;;;;;;5.13;4.35;;;;;;;;;;5035020;28;20405;-84
2023/03/17 01:02:33;;;;;;;4.93;4.30;;;;;;;;;;5035686;28;20425;-85
2023/03/17 01:04:59;;;;;;;5.55;4.50;;;;;;;;;;5018489;28;20421;-85
2023/03/17 01:07:26;;;;;;;6.05;4.90;;;;;;;;;;5002178;28;20458;-80
2023/03/17 01:09:52;;;;;;;6.28;4.60;;;;;;;;;;5021390;28;20430;-80
2023/03/17 01:12:19;;;;;;;5.55;4.70;;;;;;;;;;5018321;28;20417;-80
2023/03/17 01:14:45;;;;;;;6.40;5.05;;;;;;;;;;5024248;28;20410;-80
2023/03/17 01:17:15;;;;;;;5.82;4.93;;;;;;;;;;5016862;28;20504;-80
2023/03/17 01:19:42;;;;;;;6.13;5.20;;;;;;;;;;5002021;28;20508;-80
2023/03/17 01:22:08;;;;;;;6.68;5.40;;;;;;;;;;5035274;28;20507;-80
2023/03/17 01:24:35;;;;;;;6.38;5.20;;;;;;;;;;5026632;28;20422;-85
2023/03/17 01:27:01;;;;;;;6.18;5.35;;;;;;;;;;5012530;28;20415;-85
2023/03/17 01:29:27;;;;;;;6.03;5.35;;;;;;;;;;5029583;28;20437;-85
2023/03/17 01:31:53;;;;;;;7.50;5.47;;;;;;;;;;5034065;28;20472;-84
2023/03/17 01:34:20;;;;;;;6.45;5.28;;;;;;;;;;5032240;28;20422;-85
2023/03/17 01:36:47;;;;;;;6.35;5.38;;;;;;;;;;5029582;28;20417;-84
2023/03/17 01:39:14;;;;;;;6.75;5.32;;;;;;;;;;5034322;28;20418;-84
2023/03/17 01:41:40;;;;;;;6.50;5.60;;;;;;;;;;5034670;28;20425;-84
2023/03/17 01:44:06;;;;;;;6.10;5.50;;;;;;;;;;5010074;28;20446;-84
2023/03/17 01:46:34;;;;;;;8.30;5.75;;;;;;;;;;5018382;28;20457;-83
2023/03/17 01:49:22;;;;;;;6.70;5.78;;;;;;;;;;5001794;28;20426;-83
2023/03/17 01:51:57;;;;;;;6.50;5.80;;;;;;;;;;5016751;28;20540;-84
2023/03/17 01:54:27;;;;;;;6.63;5.97;;;;;;;;;;5029281;28;20411;-84
2023/03/17 01:56:54;;;;;;;6.30;5.68;;;;;;;;;;5013818;28;20411;-84
2023/03/17 01:59:23;;;;;;;7.82;5.72;;;;;;;;;;5005804;28;20416;-84
2023/03/17 02:01:52;;;;;;;6.45;5.85;;;;;;;;;;5038279;28;20413;-84
2023/03/17 02:04:19;;;;;;;6.20;5.57;;;;;;;;;;5018976;28;20490;-83
2023/03/17 02:06:46;;;;;;;7.15;6.22;;;;;;;;;;5035092;28;20429;-84
2023/03/17 02:09:12;;;;;;;6.30;5.70;;;;;;;;;;5016870;28;20405;-84
2023/03/17 02:11:39;;;;;;;7.55;6.20;;;;;;;;;;5000346;28;20433;-84
2023/03/17 02:14:05;;;;;;;6.30;5.70;;;;;;;;;;5014216;28;20414;-84
2023/03/17 02:16:31;;;;;;;7.80;6.25;;;;;;;;;;5010570;28;20430;-84
2023/03/17 02:18:57;;;;;;;6.78;6.18;;;;;;;;;;5034055;28;20522;-84
2023/03/17 02:21:40;;;;;;;7.87;6.27;;;;;;;;;;5000935;28;20434;-84
2023/03/17 02:24:26;;;;;;;7.45;5.63;;;;;;;;;;5034012;28;20429;-84
2023/03/17 02:26:53;;;;;;;7.50;6.15;;;;;;;;;;5001829;28;20421;-84
2023/03/17 02:29:21;;;;;;;6.70;6.07;;;;;;;;;;5016845;28;20583;-79
2023/03/17 02:31:47;;;;;;;6.05;5.45;;;;;;;;;;5017118;28;20417;-78
2023/03/17 02:34:14;;;;;;;7.00;6.20;;;;;;;;;;5000783;28;20449;-78
2023/03/17 02:36:40;;;;;;;6.25;5.65;;;;;;;;;;5017209;28;20433;-78
2023/03/17 02:39:06;;;;;;;7.03;6.22;;;;;;;;;;5017060;28;20413;-78
2023/03/17 02:41:33;;;;;;;7.97;6.57;;;;;;;;;;5034255;28;20428;-78
2023/03/17 02:43:59;;;;;;;6.93;5.70;;;;;;;;;;5017064;28;20422;-79
2023/03/17 02:46:25;;;;;;;6.75;5.68;;;;;;;;;;5001097;28;20484;-79
2023/03/17 02:48:52;;;;;;;6.57;5.95;;;;;;;;;;5016768;28;20479;-79
2023/03/17 02:51:18;;;;;;;6.28;5.68;;;;;;;;;;4999856;28;20632;-78
2023/03/17 02:53:44;;;;;;;7.90;5.43;;;;;;;;;;5000746;28;20187;-79
2023/03/17 02:56:10;;;;;;;6.77;5.10;;;;;;;;;;5000734;28;20188;-78
2023/03/17 02:58:36;;;;;;;7.40;5.75;;;;;;;;;;4999872;28;20425;-78
2023/03/17 03:01:02;;;;;;;6.90;5.50;;;;;;;;;;5033660;28;20507;-78
2023/03/17 03:03:28;;;;;;;6.30;5.33;;;;;;;;;;5000683;28;20204;-85
2023/03/17 03:05:56;;;;;;;6.57;5.70;;;;;;;;;;5016253;28;20429;-84
2023/03/17 03:08:22;;;;;;;5.97;5.33;;;;;;;;;;5000501;28;20549;-84
2023/03/17 03:10:48;;;;;;;6.40;5.50;;;;;;;;;;4999771;28;20445;-85
2023/03/17 03:13:14;;;;;;;6.20;5.60;;;;;;;;;;5015835;28;20422;-84
2023/03/17 03:15:41;;;;;;;7.45;6.10;;;;;;;;;;4996283;28;20427;-85
2023/03/17 03:18:07;;;;;;;6.30;5.70;;;;;;;;;;5030195;28;20464;-81
2023/03/17 03:20:33;;;;;;;7.57;5.75;;;;;;;;;;5029719;28;20433;-80
2023/03/17 03:22:59;;;;;;;6.90;5.75;;;;;;;;;;4999584;28;20457;-79
2023/03/17 03:25:25;;;;;;;6.40;5.70;;;;;;;;;;4999580;28;20464;-80
2023/03/17 03:27:51;;;;;;;6.03;5.10;;;;;;;;;;5016474;28;20437;-80
2023/03/17 03:30:18;;;;;;;6.85;5.70;;;;;;;;;;5016048;28;20480;-80
2023/03/17 03:32:46;;;;;;;7.50;5.63;;;;;;;;;;5016571;28;20510;-80
2023/03/17 03:35:12;;;;;;;6.13;5.53;;;;;;;;;;5032223;28;20449;-80
2023/03/17 03:37:38;;;;;;;7.87;5.00;;;;;;;;;;5016544;28;20181;-84
2023/03/17 03:40:06;;;;;;;6.00;5.07;;;;;;;;;;5000422;28;20215;-84
2023/03/17 03:42:32;;;;;;;8.07;5.40;;;;;;;;;;5016730;28;20184;-83
2023/03/17 03:44:58;;;;;;;6.85;4.88;;;;;;;;;;5000040;28;20426;-83
2023/03/17 03:47:24;;;;;;;6.23;4.80;;;;;;;;;;5015697;28;20483;-81
2023/03/17 03:49:50;;;;;;;7.40;5.57;;;;;;;;;;4999715;28;20583;-84
2023/03/17 03:52:16;;;;;;;5.70;4.37;;;;;;;;;;5016374;28;20255;-84
2023/03/17 03:54:42;;;;;;;6.65;5.10;;;;;;;;;;5016062;28;20418;-80
2023/03/17 03:57:08;;;;;;;5.70;4.97;;;;;;;;;;5000094;28;20187;-79
2023/03/17 03:59:35;;;;;;;6.63;5.00;;;;;;;;;;4999588;28;20246;-80
2023/03/17 04:02:01;;;;;;;6.10;4.90;;;;;;;;;;5000076;28;20197;-80
2023/03/17 04:04:27;;;;;;;8.27;4.90;;;;;;;;;;5000319;28;20387;-80
2023/03/17 04:06:53;;;;;;;5.17;4.30;;;;;;;;;;5012872;28;20197;-80
2023/03/17 04:09:19;;;;;;;6.85;5.50;;;;;;;;;;4999845;28;20426;-80
2023/03/17 04:11:45;;;;;;;6.33;4.77;;;;;;;;;;5033430;28;20231;-80
2023/03/17 04:14:12;;;;;;;6.53;5.22;;;;;;;;;;5015761;28;20433;-80
2023/03/17 04:16:38;;;;;;;6.32;5.72;;;;;;;;;;4990942;28;20438;-80
2023/03/17 04:19:04;;;;;;;5.95;5.40;;;;;;;;;;5030124;28;20414;-79
2023/03/17 04:21:30;;;;;;;6.23;4.93;;;;;;;;;;4999574;28;20181;-80
2023/03/17 04:23:56;;;;;;;7.33;5.47;;;;;;;;;;5019344;28;20192;-79
2023/03/17 04:26:23;;;;;;;5.90;5.30;;;;;;;;;;5002041;28;20189;-84
2023/03/17 04:28:49;;;;;;;6.37;5.00;;;;;;;;;;5003900;28;20216;-84
2023/03/17 04:31:15;;;;;;;5.70;5.20;;;;;;;;;;5036325;28;20208;-84
2023/03/17 04:33:41;;;;;;;5.47;4.97;;;;;;;;;;5011621;28;20181;-84
2023/03/17 04:36:08;;;;;;;6.33;5.47;;;;;;;;;;5021446;28;20199;-85
2023/03/17 04:38:34;;;;;;;5.60;5.10;;;;;;;;;;5036690;28;20173;-84
2023/03/17 04:41:00;;;;;;;5.20;4.70;;;;;;;;;;5028564;28;20184;-85
2023/03/17 04:43:26;;;;;;;5.07;4.57;;;;;;;;;;5019842;28;20275;-78
2023/03/17 04:45:52;;;;;;;6.53;5.22;;;;;;;;;;5003808;28;20345;-78
2023/03/17 04:48:19;;;;;;;7.55;5.70;;;;;;;;;;5001946;28;20456;-78
2023/03/17 04:50:46;;;;;;;7.38;6.20;;;;;;;;;;5019159;28;20445;-78
2023/03/17 04:53:12;;;;;;;8.17;6.00;;;;;;;;;;5020182;28;20173;-78
2023/03/17 04:55:38;;;;;;;7.20;5.17;;;;;;;;;;5036039;28;20184;-79
2023/03/17 04:58:05;;;;;;;6.87;5.47;;;;;;;;;;5003693;28;20332;-78
2023/03/17 05:00:32;;;;;;;6.83;5.43;;;;;;;;;;5002918;28;20276;-78
2023/03/17 05:02:58;;;;;;;6.83;5.37;;;;;;;;;;5042380;23;20286;-82
2023/03/17 05:05:24;;;;;;;7.30;5.90;;;;;;;;;;4998826;28;20555;-82
2023/03/17 05:07:50;;;;;;;6.40;5.80;;;;;;;;;;5015062;28;20180;-83
2023/03/17 05:10:19;;;;;;;6.83;5.43;;;;;;;;;;5018822;28;20293;-82
2023/03/17 05:12:45;;;;;;;6.87;5.27;;;;;;;;;;5003368;28;20205;-82
2023/03/17 05:15:12;;;;;;;6.67;5.27;;;;;;;;;;5018209;28;20177;-82
2023/03/17 05:17:38;;;;;;;6.57;5.40;;;;;;;;;;5018566;28;20172;-82
2023/03/17 05:20:04;;;;;;;6.40;5.30;;;;;;;;;;5031827;28;20208;-82
2023/03/17 05:22:30;;;;;;;7.30;5.57;;;;;;;;;;4993147;28;20243;-82
2023/03/17 05:24:56;;;;;;;6.03;5.23;;;;;;;;;;5014879;28;20238;-82
2023/03/17 05:27:22;;;;;;;6.17;5.57;;;;;;;;;;4997726;28;20190;-82
2023/03/17 05:29:51;;;;;;;7.77;5.70;;;;;;;;;;4998980;28;20205;-82
2023/03/17 05:32:18;;;;;;;8.40;5.07;;;;;;;;;;5014711;28;20183;-82
2023/03/17 05:34:45;;;;;;;7.30;5.33;;;;;;;;;;5017359;28;20180;-82
2023/03/17 05:37:14;;;;;;;7.90;5.30;;;;;;;;;;5013872;28;20302;-82
2023/03/17 05:39:40;;;;;;;5.60;4.77;;;;;;;;;;5018098;28;20184;-82
2023/03/17 05:42:07;;;;;;;6.93;5.20;;;;;;;;;;5017890;28;20577;-82
2023/03/17 05:44:36;;;;;;;5.10;4.60;;;;;;;;;;5002472;28;20455;-82
2023/03/17 05:47:02;;;;;;;6.27;5.20;;;;;;;;;;5018709;28;20177;-82
2023/03/17 05:49:28;;;;;;;5.97;4.80;;;;;;;;;;5009553;28;20181;-82
2023/03/17 05:51:55;;;;;;;5.53;4.60;;;;;;;;;;5017911;28;20188;-82
2023/03/17 05:54:23;;;;;;;6.63;4.70;;;;;;;;;;5018059;28;20215;-82
2023/03/17 05:56:49;;;;;;;6.53;4.90;;;;;;;;;;5017872;28;20268;-83
2023/03/17 05:59:17;;;;;;;5.20;4.70;;;;;;;;;;5001803;28;20189;-83
2023/03/17 06:01:43;;;;;;;6.47;4.97;;;;;;;;;;5018192;28;20268;-83
2023/03/17 06:04:09;;;;;;;7.97;4.87;;;;;;;;;;5017498;28;20221;-83
2023/03/17 06:06:35;;;;;;;6.67;4.60;;;;;;;;;;5003994;28;20176;-83
2023/03/17 06:09:01;;;;;;;5.73;4.67;;;;;;;;;;5017246;28;20180;-83
2023/03/17 06:11:30;;;;;;;6.10;5.30;;;;;;;;;;5017256;28;20216;-83
2023/03/17 06:13:56;;;;;;;7.93;5.37;;;;;;;;;;5017613;28;20180;-83
2023/03/17 06:16:22;;;;;;;5.83;5.20;;;;;;;;;;5017699;28;20277;-82
2023/03/17 06:18:48;;;;;;;6.13;4.97;;;;;;;;;;5003809;28;20184;-83
2023/03/17 06:21:17;;;;;;;8.17;4.90;;;;;;;;;;5025881;28;20199;-82
2023/03/17 06:23:43;;;;;;;7.93;4.87;;;;;;;;;;5017370;28;20195;-82
2023/03/17 06:26:09;;;;;;;5.83;4.97;;;;;;;;;;5019401;28;20190;-83
2023/03/17 06:28:38;;;;;;;7.70;4.90;;;;;;;;;;5015385;28;20223;-84
2023/03/17 06:31:04;;;;;;;8.80;5.30;;;;;;;;;;5005925;28;20223;-83
2023/03/17 06:33:30;;;;;;;6.53;4.90;;;;;;;;;;5008949;28;20193;-84
2023/03/17 06:35:57;;;;;;;7.20;5.03;;;;;;;;;;5014744;28;20185;-83
2023/03/17 06:38:24;;;;;;;7.53;5.60;;;;;;;;;;5012320;28;20176;-83
2023/03/17 06:40:50;;;;;;;6.63;5.00;;;;;;;;;;5015963;28;20192;-83
2023/03/17 06:43:18;;;;;;;7.77;5.70;;;;;;;;;;5016629;28;20195;-83
2023/03/17 06:45:46;;;;;;;6.87;5.23;;;;;;;;;;5016548;28;20180;-83
2023/03/17 06:48:13;;;;;;;8.97;5.33;;;;;;;;;;5016483;28;20179;-83
2023/03/17 06:50:39;;;;;;;5.70;5.17;;;;;;;;;;5000859;28;20227;-83
2023/03/17 06:53:08;;;;;;;7.53;5.17;;;;;;;;;;5014795;28;20176;-83
2023/03/17 06:55:34;;;;;;;6.87;5.40;;;;;;;;;;5001059;28;20216;-83
2023/03/17 06:58:00;;;;;;;7.20;5.43;;;;;;;;;;5016303;28;20181;-83
2023/03/17 07:00:26;;;;;;;7.10;4.90;;;;;;;;;;5017204;28;20197;-83
2023/03/17 07:02:55;;;;;;;6.60;5.70;;;;;;;;;;5016706;28;20246;-83
2023/03/17 07:05:21;;;;;;;7.20;5.30;;;;;;;;;;5016959;28;20184;-83
2023/03/17 07:07:48;;;;;;;7.50;5.57;;;;;;;;;;5015395;28;20213;-83
2023/03/17 07:10:14;;;;;;;8.30;5.67;;;;;;;;;;5014649;28;20216;-83
2023/03/17 07:12:41;;;;;;;6.97;5.77;;;;;;;;;;5016686;28;20193;-83
2023/03/17 07:15:08;;;;;;;7.33;6.17;;;;;;;;;;4999653;28;20283;-83
2023/03/17 07:17:34;;;;;;;8.40;5.95;;;;;;;;;;5010454;28;20404;-83
2023/03/17 07:20:03;;;;;;;8.98;6.07;;;;;;;;;;5025470;28;20460;-82
2023/03/17 07:22:29;;;;;;;8.83;6.83;;;;;;;;;;5013783;28;20460;-83
2023/03/17 07:24:55;;;;;;;7.50;6.70;;;;;;;;;;4999610;28;20550;-83
2023/03/17 07:27:25;;;;;;;8.30;7.03;;;;;;;;;;5015147;28;20429;-83
2023/03/17 07:29:51;;;;;;;8.87;6.77;;;;;;;;;;5014020;28;20435;-83
2023/03/17 07:32:18;;;;;;;9.45;6.95;;;;;;;;;;5015050;28;20410;-83
2023/03/17 07:34:46;;;;;;;7.30;5.70;;;;;;;;;;5008947;28;20417;-83
2023/03/17 07:37:12;;;;;;;7.80;6.20;;;;;;;;;;5009964;28;20445;-83
2023/03/17 07:39:38;;;;;;;7.90;5.88;;;;;;;;;;4998885;28;20422;-83
2023/03/17 07:42:05;;;;;;;8.80;5.60;;;;;;;;;;4995533;28;20426;-83
2023/03/17 07:44:34;;;;;;;7.00;4.90;;;;;;;;;;5011704;28;20429;-83
2023/03/17 07:47:00;;;;;;;7.30;4.70;;;;;;;;;;5013954;28;20433;-83
2023/03/17 07:49:27;;;;;;;7.00;4.80;;;;;;;;;;5014470;28;20512;-83
2023/03/17 07:51:56;;;;;;;6.85;4.90;;;;;;;;;;5014548;28;20482;-83
2023/03/17 07:54:23;;;;;;;8.18;4.78;;;;;;;;;;4991541;28;20423;-83
2023/03/17 07:56:49;;;;;;;7.53;5.18;;;;;;;;;;4996619;28;20501;-83
2023/03/17 07:59:17;;;;;;;9.05;4.97;;;;;;;;;;5002290;28;20413;-83
2023/03/17 08:01:43;;;;;;;5.82;4.38;;;;;;;;;;5006391;28;20424;-82
2023/03/17 08:04:11;;;;;;;8.10;4.60;;;;;;;;;;5032409;28;20429;-82
2023/03/17 08:06:41;;;;;;;9.63;4.43;;;;;;;;;;5036742;28;20234;-83
2023/03/17 08:09:07;;;;;;;6.17;3.97;;;;;;;;;;5035390;28;20181;-82
2023/03/17 08:11:34;;;;;;;7.67;4.27;;;;;;;;;;5014969;28;20238;-83
2023/03/17 08:14:03;;;;;;;5.73;4.00;;;;;;;;;;5019355;28;20238;-83
2023/03/17 08:16:29;;;;;;;5.50;4.10;;;;;;;;;;5016386;28;20173;-82
2023/03/17 08:18:57;;;;;;;7.63;4.37;;;;;;;;;;5017395;28;20180;-82
2023/03/17 08:21:24;;;;;;;5.27;3.90;;;;;;;;;;5019182;28;20192;-82
2023/03/17 08:23:50;;;;;;;7.73;3.50;;;;;;;;;;5018501;28;20199;-82
2023/03/17 08:26:17;;;;;;;9.83;4.00;;;;;;;;;;5017527;28;20196;-82
2023/03/17 08:28:45;;;;;;;6.83;4.27;;;;;;;;;;4999962;28;20217;-82
2023/03/17 08:31:16;;;;;;;5.73;3.57;;;;;;;;;;5019585;28;20212;-82
2023/03/17 08:33:45;;;;;;;4.50;3.47;;;;;;;;;;5018224;28;20177;-82
2023/03/17 08:36:11;;;;;;;5.10;3.60;;;;;;;;;;5019111;28;20180;-82
2023/03/17 08:38:38;;;;;;;5.17;3.43;;;;;;;;;;5019625;28;20218;-83
2023/03/17 08:41:08;;;;;;;6.70;4.00;;;;;;;;;;5003652;28;20188;-82
2023/03/17 08:43:35;;;;;;;4.13;3.30;;;;;;;;;;5018781;28;20196;-83
2023/03/17 08:46:05;;;;;;;6.60;3.73;;;;;;;;;;5008767;28;20216;-82
2023/03/17 08:48:32;;;;;;;4.63;3.30;;;;;;;;;;5018452;28;20224;-82
2023/03/17 08:50:58;;;;;;;4.30;3.50;;;;;;;;;;4989765;28;20249;-82
2023/03/17 08:53:27;;;;;;;4.60;3.20;;;;;;;;;;5001804;28;20243;-82
2023/03/17 08:55:55;;;;;;;3.90;3.50;;;;;;;;;;5006185;28;20256;-82
2023/03/17 08:58:22;;;;;;;5.57;3.57;;;;;;;;;;4999677;28;20188;-82
2023/03/17 09:00:51;;;;;;;5.50;3.50;;;;;;;;;;4999678;28;20184;-83
2023/03/17 09:03:17;;;;;;;6.43;3.63;;;;;;;;;;5019011;28;20228;-82
2023/03/17 09:05:43;;;;;;;6.77;3.53;;;;;;;;;;5019142;28;20200;-83
2023/03/17 09:08:13;;;;;;;6.67;3.50;;;;;;;;;;5019341;28;20211;-82
2023/03/17 09:10:39;;;;;;;5.03;3.73;;;;;;;;;;5018045;28;20213;-82
2023/03/17 09:13:07;;;;;;;4.20;3.60;;;;;;;;;;5014962;28;20208;-82
2023/03/17 09:15:37;;;;;;;4.97;3.23;;;;;;;;;;5001155;28;20283;-84
2023/03/17 09:18:04;;;;;;;5.30;3.80;;;;;;;;;;5011321;28;20188;-82
2023/03/17 09:20:30;;;;;;;4.80;3.40;;;;;;;;;;5018968;28;20177;-83
2023/03/17 09:22:59;;;;;;;7.40;3.43;;;;;;;;;;5019090;28;20181;-83
2023/03/17 09:25:26;;;;;;;4.40;3.43;;;;;;;;;;5015361;28;20188;-82
2023/03/17 09:27:52;;;;;;;5.43;3.50;;;;;;;;;;5018451;28;20242;-82
2023/03/17 09:30:20;;;;;;;5.37;3.47;;;;;;;;;;5002791;28;20212;-82
2023/03/17 09:32:47;;;;;;;5.30;3.70;;;;;;;;;;5017282;28;20176;-82
2023/03/17 09:35:13;;;;;;;9.33;3.30;;;;;;;;;;5018840;28;20219;-82
2023/03/17 09:37:41;;;;;;;7.10;4.10;;;;;;;;;;5015797;28;20184;-82
2023/03/17 09:40:12;;;;;;;4.37;3.83;;;;;;;;;;5015083;28;20182;-82
2023/03/17 09:42:40;;;;;;;5.00;3.57;;;;;;;;;;5015315;28;20186;-82
2023/03/17 09:45:25;;;;;;;5.83;3.80;;;;;;;;;;4999490;28;20185;-82
2023/03/17 09:48:03;;;;;;;4.87;3.37;;;;;;;;;;4999008;28;20185;-82
2023/03/17 09:50:42;;;;;;;5.57;3.93;;;;;;;;;;4998125;28;20299;-83
2023/03/17 09:53:14;;;;;;;7.40;3.60;;;;;;;;;;4998562;28;20213;-83
2023/03/17 09:55:41;;;;;;;7.03;3.70;;;;;;;;;;4998862;28;20203;-82
2023/03/17 09:58:09;;;;;;;6.73;3.90;;;;;;;;;;5014600;28;20213;-83
2023/03/17 10:00:35;;;;;;;5.27;3.70;;;;;;;;;;4998253;28;20275;-82
2023/03/17 10:03:06;;;;;;;7.03;3.60;;;;;;;;;;4998398;28;20229;-82
2023/03/17 10:05:34;;;;;;;6.63;3.73;;;;;;;;;;5014525;28;20186;-82
2023/03/17 10:08:16;;;;;;;7.13;3.90;;;;;;;;;;4998229;28;20217;-82
2023/03/17 10:10:57;;;;;;;5.00;3.63;;;;;;;;;;4998005;28;20209;-82
2023/03/17 10:13:34;;;;;;;6.20;4.20;;;;;;;;;;4998320;28;20175;-82
2023/03/17 10:16:03;;;;;;;4.60;4.00;;;;;;;;;;5008420;28;20185;-83
2023/03/17 10:18:32;;;;;;;7.13;4.07;;;;;;;;;;5009775;28;20195;-83
2023/03/17 10:21:06;;;;;;;5.07;4.07;;;;;;;;;;4998761;28;20188;-82
2023/03/17 10:23:33;;;;;;;4.57;4.03;;;;;;;;;;4998231;28;20181;-82
2023/03/17 10:26:02;;;;;;;7.83;4.30;;;;;;;;;;5004003;28;20938;-82
2023/03/17 10:28:32;;;;;;;6.87;4.27;;;;;;;;;;5019709;28;20183;-83
2023/03/17 10:31:04;;;;;;;8.03;4.00;;;;;;;;;;5006280;28;20231;-82
2023/03/17 10:33:31;;;;;;;6.60;4.00;;;;;;;;;;5027383;28;20204;-83
2023/03/17 10:36:06;;;;;;;5.57;3.90;;;;;;;;;;5015271;28;20212;-83
2023/03/17 10:38:33;;;;;;;6.23;4.40;;;;;;;;;;5017348;28;20183;-83
2023/03/17 10:41:02;;;;;;;8.90;4.50;;;;;;;;;;5016546;28;20184;-84
2023/03/17 10:43:30;;;;;;;6.30;4.50;;;;;;;;;;5017099;28;20184;-84
2023/03/17 10:46:02;;;;;;;7.43;4.90;;;;;;;;;;5017027;28;20230;-84
2023/03/17 10:48:35;;;;;;;8.57;4.20;;;;;;;;;;5019523;28;20180;-85
2023/03/17 10:51:05;;;;;;;5.13;4.53;;;;;;;;;;5037119;28;20204;-85
2023/03/17 10:53:36;;;;;;;8.67;4.87;;;;;;;;;;5037045;28;20175;-85
2023/03/17 10:56:21;;;;;;;6.57;4.50;;;;;;;;;;5036847;28;20168;-85
2023/03/17 10:58:49;;;;;;;6.37;4.87;;;;;;;;;;5037236;28;20176;-85
2023/03/17 11:01:34;;;;;;;8.17;4.93;;;;;;;;;;5037094;28;20247;-85
2023/03/17 11:04:02;;;;;;;9.73;5.50;;;;;;;;;;5036618;28;20273;-85
2023/03/17 11:06:41;;;;;;;11.80;5.20;;;;;;;;;;5037331;28;20204;-85
2023/03/17 11:09:08;;;;;;;7.73;4.80;;;;;;;;;;5037129;28;20239;-85
2023/03/17 11:11:41;;;;;;;7.50;4.63;;;;;;;;;;5036747;28;20216;-85
2023/03/17 11:14:12;;;;;;;7.73;4.30;;;;;;;;;;5037451;28;20168;-85
2023/03/17 11:16:57;;;;;;;6.30;4.40;;;;;;;;;;5036881;28;20176;-86
2023/03/17 11:19:42;;;;;;;6.13;4.30;;;;;;;;;;5036803;28;20180;-86
2023/03/17 11:22:27;;;;;;;7.90;4.60;;;;;;;;;;5036976;28;20179;-85
2023/03/17 11:24:59;;;;;;;6.80;4.70;;;;;;;;;;5036817;28;20176;-86
2023/03/17 11:27:31;;;;;;;9.33;4.70;;;;;;;;;;5036528;28;20263;-87
2023/03/17 11:30:20;;;;;;;6.57;4.50;;;;;;;;;;5036336;28;20199;-85
2023/03/17 11:33:04;;;;;;;9.43;4.83;;;;;;;;;;5035904;28;20261;-85
2023/03/17 11:35:43;;;;;;;7.30;4.50;;;;;;;;;;5036156;28;20180;-85
2023/03/17 11:38:16;;;;;;;7.63;4.80;;;;;;;;;;5039263;28;20180;-85
2023/03/17 11:41:05;;;;;;;7.23;5.00;;;;;;;;;;5035926;28;20240;-85
2023/03/17 11:43:44;;;;;;;7.90;4.43;;;;;;;;;;5036133;28;20206;-85
2023/03/17 11:46:26;;;;;;;9.47;5.07;;;;;;;;;;5036181;28;20218;-85
2023/03/17 11:48:58;;;;;;;10.53;4.70;;;;;;;;;;5036045;28;20183;-85
2023/03/17 11:51:34;;;;;;;7.17;4.87;;;;;;;;;;5035763;28;20208;-85
2023/03/17 11:54:09;;;;;;;5.57;4.60;;;;;;;;;;5036021;28;20176;-85
2023/03/17 11:56:44;;;;;;;7.60;4.90;;;;;;;;;;5035898;28;20179;-86
2023/03/17 11:59:22;;;;;;;9.30;5.03;;;;;;;;;;5035955;28;20203;-85
2023/03/17 12:01:55;;;;;;;8.23;4.90;;;;;;;;;;5036092;28;20270;-85
2023/03/17 12:04:34;;;;;;;8.67;5.03;;;;;;;;;;5035966;28;20227;-86
2023/03/17 12:07:20;;;;;;;6.60;4.70;;;;;;;;;;5035993;28;20325;-85
2023/03/17 12:09:54;;;;;;;8.50;5.00;;;;;;;;;;5022355;28;20188;-84
2023/03/17 12:12:24;;;;;;;9.77;5.43;;;;;;;;;;5035987;28;20195;-85
2023/03/17 12:14:55;;;;;;;7.77;4.70;;;;;;;;;;5035822;28;20187;-85
2023/03/17 12:17:44;;;;;;;9.53;5.17;;;;;;;;;;5035909;28;20184;-86
2023/03/17 12:20:17;;;;;;;5.80;4.90;;;;;;;;;;5035769;28;20188;-86
2023/03/17 12:22:49;;;;;;;9.43;5.20;;;;;;;;;;5036131;28;20180;-85
2023/03/17 12:25:30;;;;;;;7.77;5.20;;;;;;;;;;5035941;28;20180;-85
2023/03/17 12:28:15;;;;;;;7.30;5.20;;;;;;;;;;5035746;28;20186;-85
2023/03/17 12:31:17;;;;;;;7.43;5.50;;;;;;;;;;5035522;28;20215;-85
2023/03/17 12:33:55;;;;;;;7.90;4.93;;;;;;;;;;4956470;28;20178;-85
2023/03/17 12:36:24;;;;;;;8.90;5.03;;;;;;;;;;5026079;28;20194;-85
2023/03/17 12:38:58;;;;;;;7.77;5.47;;;;;;;;;;5035508;28;20233;-84
2023/03/17 12:41:35;;;;;;;6.73;5.43;;;;;;;;;;5035567;28;20266;-85
2023/03/17 12:44:01;;;;;;;9.60;5.27;;;;;;;;;;5036887;28;20210;-84
2023/03/17 12:46:27;;;;;;;7.57;5.27;;;;;;;;;;5039150;28;20209;-85
2023/03/17 12:49:03;;;;;;;6.73;5.40;;;;;;;;;;5039437;28;20218;-85
2023/03/17 12:51:46;;;;;;;8.87;5.47;;;;;;;;;;5038898;28;20214;-85
2023/03/17 12:54:21;;;;;;;8.93;5.13;;;;;;;;;;5039018;28;20176;-85
2023/03/17 12:56:48;;;;;;;8.57;5.00;;;;;;;;;;5039266;28;20210;-83
2023/03/17 12:59:17;;;;;;;8.30;5.47;;;;;;;;;;5038920;28;20203;-83
2023/03/17 13:01:45;;;;;;;6.20;5.30;;;;;;;;;;5038857;28;20180;-83
2023/03/17 13:04:22;;;;;;;7.03;5.20;;;;;;;;;;5038984;28;20280;-83
2023/03/17 13:07:08;;;;;;;6.53;5.23;;;;;;;;;;5039016;28;20183;-83
2023/03/17 13:09:53;;;;;;;6.90;5.80;;;;;;;;;;5038996;28;20190;-83
2023/03/17 13:12:38;;;;;;;7.43;5.70;;;;;;;;;;5039294;28;20207;-83
2023/03/17 13:15:20;;;;;;;11.73;6.17;;;;;;;;;;5038908;28;20176;-83
2023/03/17 13:17:49;;;;;;;7.60;5.77;;;;;;;;;;5039391;28;20176;-83
2023/03/17 13:20:19;;;;;;;10.47;6.10;;;;;;;;;;5039041;28;20259;-83
2023/03/17 13:23:03;;;;;;;8.47;6.10;;;;;;;;;;5038441;28;20184;-83
2023/03/17 13:25:31;;;;;;;6.57;5.63;;;;;;;;;;5038618;28;20255;-83
2023/03/17 13:28:14;;;;;;;7.90;5.67;;;;;;;;;;5038688;28;20198;-83
2023/03/17 13:30:40;;;;;;;8.87;5.97;;;;;;;;;;5038671;28;20203;-83
2023/03/17 13:33:09;;;;;;;7.33;6.00;;;;;;;;;;5038726;28;20177;-83
2023/03/17 13:35:50;;;;;;;7.00;5.43;;;;;;;;;;5038418;28;20180;-83
2023/03/17 13:38:31;;;;;;;7.17;5.70;;;;;;;;;;5038576;28;20233;-83
2023/03/17 13:40:57;;;;;;;8.30;5.97;;;;;;;;;;5038370;28;20223;-83
2023/03/17 13:43:36;;;;;;;8.87;6.10;;;;;;;;;;5038777;28;20188;-83
2023/03/17 13:46:21;;;;;;;9.57;6.33;;;;;;;;;;5038045;28;20239;-83
2023/03/17 13:48:47;;;;;;;8.23;5.43;;;;;;;;;;5038520;28;20179;-84
2023/03/17 13:51:16;;;;;;;8.80;6.20;;;;;;;;;;5038205;28;20265;-83
2023/03/17 13:53:52;;;;;;;7.53;5.93;;;;;;;;;;5038097;28;20179;-83
2023/03/17 13:56:35;;;;;;;10.13;6.27;;;;;;;;;;5037345;28;20251;-83
2023/03/17 13:59:04;;;;;;;9.80;5.97;;;;;;;;;;5038375;28;20199;-83
2023/03/17 14:01:39;;;;;;;7.70;5.77;;;;;;;;;;5037740;28;20190;-83
2023/03/17 14:04:12;;;;;;;9.20;6.37;;;;;;;;;;5037605;28;20313;-82
2023/03/17 14:06:39;;;;;;;7.37;6.37;;;;;;;;;;5037615;28;20184;-82
2023/03/17 14:09:31;;;;;;;10.57;6.50;;;;;;;;;;5037970;28;20187;-83
2023/03/17 14:12:01;;;;;;;12.00;6.43;;;;;;;;;;5033750;28;20285;-83
2023/03/17 14:14:36;;;;;;;12.43;6.67;;;;;;;;;;5037506;28;20190;-83
2023/03/17 14:17:18;;;;;;;12.00;6.30;;;;;;;;;;5037509;28;20176;-82
2023/03/17 14:20:07;;;;;;;8.37;6.43;;;;;;;;;;5037732;28;20184;-82
2023/03/17 14:22:38;;;;;;;8.80;6.13;;;;;;;;;;5037587;28;20179;-83
2023/03/17 14:25:07;;;;;;;9.93;6.37;;;;;;;;;;5037336;28;20191;-83
2023/03/17 14:27:34;;;;;;;7.80;6.53;;;;;;;;;;5037576;28;20182;-83
2023/03/17 14:30:08;;;;;;;6.90;6.20;;;;;;;;;;5021192;28;20215;-85
2023/03/17 14:32:34;;;;;;;10.90;6.73;;;;;;;;;;5038413;28;20183;-85
2023/03/17 14:35:00;;;;;;;10.47;6.50;;;;;;;;;;5038817;28;20180;-86
2023/03/17 14:37:30;;;;;;;8.17;6.40;;;;;;;;;;5038269;28;20262;-86
2023/03/17 14:39:57;;;;;;;7.13;6.27;;;;;;;;;;5038199;28;20208;-85
2023/03/17 14:42:30;;;;;;;10.73;6.60;;;;;;;;;;5037714;28;20176;-85
2023/03/17 14:45:06;;;;;;;8.37;7.07;;;;;;;;;;5037477;28;20180;-85
2023/03/17 14:47:39;;;;;;;10.53;6.83;;;;;;;;;;4996090;28;20267;-85
2023/03/17 14:50:14;;;;;;;10.00;6.80;;;;;;;;;;4997474;28;20240;-85
2023/03/17 14:52:40;;;;;;;7.70;6.60;;;;;;;;;;4996583;28;20205;-85
2023/03/17 14:55:07;;;;;;;10.23;7.23;;;;;;;;;;4997553;28;20181;-85
2023/03/17 14:57:38;;;;;;;8.67;7.00;;;;;;;;;;4997352;28;20177;-86